Time;durP1;ratioP1;P1;durP2;ratioP2;P2;SDS_P1;SDS_P2;PMS_P1;PMS_P2;Temp;Humidity;BMP_temperature;BMP_pressure;BME280_temperature;BME280_humidity;BME280_pressure;Samples;Min_cycle;Max_cycle;Signal;HPM_P1;HPM_P2
2023/03/12 00:01:41;;;;;;;3.38;3.03;;;;;;;3.06;97.54;101094.84;5046362;28;20044;-73
2023/03/12 00:04:07;;;;;;;3.58;2.95;;;;;;;3.06;97.69;101093.13;5043790;28;20041;-73
2023/03/12 00:06:32;;;;;;;3.58;3.10;;;;;;;3.06;97.48;101090.53;5044780;28;20041;-73
2023/03/12 00:09:00;;;;;;;2.88;2.67;;;;;;;3.07;97.56;101088.78;5043046;28;20063;-73
2023/03/12 00:11:26;;;;;;;3.83;3.33;;;;;;;3.06;97.59;101093.13;5035436;28;20045;-73
2023/03/12 00:13:53;;;;;;;3.33;3.03;;;;;;;3.07;97.70;101088.78;5036179;28;20072;-73
2023/03/12 00:16:20;;;;;;;4.93;3.80;;;;;;;3.06;97.72;101090.53;5036640;28;20038;-73
2023/03/12 00:18:50;;;;;;;3.55;3.25;;;;;;;3.06;97.61;101080.19;5036239;28;20049;-73
2023/03/12 00:21:16;;;;;;;3.92;3.63;;;;;;;3.07;97.76;101081.03;5037102;28;20233;-73
2023/03/12 00:23:42;;;;;;;3.53;3.22;;;;;;;3.08;97.71;101077.59;5044043;28;20040;-73
2023/03/12 00:26:10;;;;;;;3.85;3.55;;;;;;;3.08;97.71;101064.66;5045037;28;20079;-73
2023/03/12 00:28:36;;;;;;;3.50;3.20;;;;;;;3.08;97.83;101062.06;5043166;28;20108;-73
2023/03/12 00:31:11;;;;;;;3.67;3.38;;;;;;;3.08;97.85;101059.47;5047257;28;20041;-73
2023/03/12 00:33:36;;;;;;;3.38;3.08;;;;;;;3.09;97.77;101058.59;5043550;28;20064;-73
2023/03/12 00:36:02;;;;;;;4.20;3.80;;;;;;;3.09;97.81;101063.75;5046802;28;20267;-73
2023/03/12 00:38:27;;;;;;;3.55;3.25;;;;;;;3.10;98.04;101067.22;5044278;28;20265;-73
2023/03/12 00:40:53;;;;;;;3.67;3.38;;;;;;;3.10;97.90;101070.66;5041641;28;20305;-73
2023/03/12 00:43:18;;;;;;;3.63;3.33;;;;;;;3.10;97.83;101062.91;5038772;28;20091;-73
2023/03/12 00:45:44;;;;;;;3.33;3.13;;;;;;;3.12;97.97;101057.72;5040658;28;20029;-73
2023/03/12 00:48:09;;;;;;;3.75;3.45;;;;;;;3.11;97.92;101050.81;5040459;28;20095;-73
2023/03/12 00:50:34;;;;;;;4.65;3.25;;;;;;;3.11;98.01;101036.16;5039910;28;20033;-73
2023/03/12 00:53:00;;;;;;;3.63;2.55;;;;;;;3.11;98.11;101043.06;5040528;28;20064;-73
2023/03/12 00:55:25;;;;;;;3.45;3.17;;;;;;;3.11;98.03;101036.16;5039943;28;20549;-73
2023/03/12 00:57:50;;;;;;;4.35;2.65;;;;;;;3.13;98.10;101044.78;5040118;28;20048;-73
2023/03/12 01:00:16;;;;;;;3.15;2.90;;;;;;;3.12;98.12;101045.63;5075510;28;20355;-73
2023/03/12 01:02:42;;;;;;;3.40;3.10;;;;;;;3.13;98.11;101049.97;5073896;28;20049;-73
2023/03/12 01:05:09;;;;;;;3.47;2.80;;;;;;;3.13;98.25;101057.72;5060817;28;20036;-73
2023/03/12 01:07:35;;;;;;;2.72;2.53;;;;;;;3.12;97.98;101063.75;5059547;28;20091;-73
2023/03/12 01:10:01;;;;;;;3.15;2.85;;;;;;;3.14;98.08;101056.84;5060042;28;20348;-73
2023/03/12 01:12:26;;;;;;;2.92;2.72;;;;;;;3.14;98.07;101054.25;5059258;28;20041;-73
2023/03/12 01:14:51;;;;;;;2.97;2.78;;;;;;;3.13;97.98;101052.53;5059627;28;20296;-73
2023/03/12 01:17:17;;;;;;;3.20;2.90;;;;;;;3.14;98.02;101048.22;5059332;28;20053;-73
2023/03/12 01:19:42;;;;;;;3.17;2.67;;;;;;;3.13;97.90;101031.84;5059841;28;20033;-73
2023/03/12 01:22:08;;;;;;;4.32;2.83;;;;;;;3.14;97.98;101035.28;5060121;28;20317;-73
2023/03/12 01:24:33;;;;;;;3.38;3.08;;;;;;;3.14;98.00;101015.44;5041300;28;20045;-73
2023/03/12 01:26:59;;;;;;;2.55;2.35;;;;;;;3.14;98.01;101018.00;5059692;28;20340;-73
2023/03/12 01:29:24;;;;;;;3.70;2.58;;;;;;;3.14;97.96;101018.00;5059210;28;20047;-73
2023/03/12 01:31:50;;;;;;;3.25;2.88;;;;;;;3.16;97.97;101018.00;5059852;28;20268;-73
2023/03/12 01:34:16;;;;;;;4.38;3.10;;;;;;;3.16;97.99;101015.41;5058908;28;20045;-73
2023/03/12 01:36:43;;;;;;;2.60;2.40;;;;;;;3.16;97.97;101013.69;5059243;28;20071;-73
2023/03/12 01:39:09;;;;;;;3.78;2.40;;;;;;;3.17;97.98;101007.66;5059856;28;20037;-73
2023/03/12 01:41:35;;;;;;;4.28;3.45;;;;;;;3.17;98.05;101002.47;5058948;28;20071;-73
2023/03/12 01:44:02;;;;;;;3.25;2.95;;;;;;;3.19;98.09;101000.72;5059715;28;20045;-73
2023/03/12 01:46:31;;;;;;;3.20;2.90;;;;;;;3.19;98.17;100994.69;5059322;28;20263;-73
2023/03/12 01:49:00;;;;;;;3.70;2.50;;;;;;;3.19;98.33;100990.38;5059240;28;20037;-73
2023/03/12 01:51:32;;;;;;;3.00;2.70;;;;;;;3.19;98.33;100985.19;5059003;28;20124;-73
2023/03/12 01:54:01;;;;;;;3.25;2.80;;;;;;;3.20;98.32;100981.75;5058801;28;20051;-73
2023/03/12 01:56:29;;;;;;;;;;;;;;;3.20;98.41;100979.16;5059263;28;20048;-73
2023/03/12 01:59:01;;;;;;;3.30;2.75;;;;;;;3.21;98.37;100977.44;5059223;28;19925;-73
2023/03/12 02:05:10;;;;;;;3.88;3.15;;;;;;;3.20;98.32;100971.41;4737390;28;20282;-73
2023/03/12 02:07:35;;;;;;;3.65;3.15;;;;;;;3.21;98.29;100967.91;5058157;28;20040;-73
2023/03/12 02:10:02;;;;;;;3.20;2.90;;;;;;;3.20;98.20;100961.03;5058523;28;20037;-74
2023/03/12 02:12:27;;;;;;;4.40;2.90;;;;;;;3.20;98.17;100962.75;5058391;28;20344;-74
2023/03/12 02:14:52;;;;;;;3.50;2.80;;;;;;;3.21;98.28;100954.13;5058221;28;20075;-74
2023/03/12 02:17:18;;;;;;;3.00;2.70;;;;;;;3.21;98.35;100960.16;5058243;28;20025;-74
2023/03/12 02:19:54;;;;;;;2.90;2.60;;;;;;;3.22;98.36;100945.47;5059219;28;20323;-74
2023/03/12 02:22:21;;;;;;;2.88;2.67;;;;;;;3.22;98.34;100942.88;5058721;28;20063;-74
2023/03/12 02:25:03;;;;;;;2.80;2.60;;;;;;;3.21;98.51;100939.44;5058866;28;20041;-74
2023/03/12 02:27:33;;;;;;;2.92;2.58;;;;;;;3.23;98.35;100936.84;5057884;28;20037;-74
2023/03/12 02:30:00;;;;;;;3.20;3.00;;;;;;;3.23;98.40;100935.13;5058239;28;20040;-74
2023/03/12 02:32:31;;;;;;;3.22;2.80;;;;;;;3.23;98.46;100929.94;5058841;28;20040;-74
2023/03/12 02:34:59;;;;;;;4.72;2.55;;;;;;;3.23;98.44;100932.53;5058656;28;20074;-74
2023/03/12 02:37:24;;;;;;;4.43;3.05;;;;;;;3.23;98.49;100932.53;5057630;28;20263;-74
2023/03/12 02:40:17;;;;;;;3.42;2.40;;;;;;;3.24;98.60;100931.66;5059246;28;20040;-74
2023/03/12 02:42:44;;;;;;;3.30;3.00;;;;;;;3.24;98.60;100936.84;5057608;28;20049;-74
2023/03/12 02:45:10;;;;;;;2.53;2.33;;;;;;;3.24;98.60;100929.09;5058152;28;20025;-74
2023/03/12 02:47:35;;;;;;;2.88;2.67;;;;;;;3.24;98.65;100923.91;5057513;28;20390;-74
2023/03/12 02:50:00;;;;;;;2.50;2.30;;;;;;;3.25;98.56;100919.56;5058135;28;20269;-74
2023/03/12 02:52:26;;;;;;;3.10;2.88;;;;;;;3.24;98.65;100921.31;5057778;28;20085;-74
2023/03/12 02:54:51;;;;;;;3.33;3.03;;;;;;;3.24;98.76;100916.13;5058405;28;20086;-74
2023/03/12 02:57:17;;;;;;;2.88;2.58;;;;;;;3.25;98.55;100912.66;5056949;28;20256;-74
2023/03/12 02:59:42;;;;;;;3.00;2.70;;;;;;;3.25;98.69;100897.13;5057863;28;20225;-74
2023/03/12 03:02:08;;;;;;;3.20;2.88;;;;;;;3.24;98.88;100895.44;5058099;28;20048;-74
2023/03/12 03:04:34;;;;;;;2.55;2.35;;;;;;;3.25;98.76;100891.94;5052491;28;20041;-74
2023/03/12 03:07:00;;;;;;;2.42;2.22;;;;;;;3.25;98.82;100896.28;5038146;28;20041;-74
2023/03/12 03:09:25;;;;;;;3.10;2.80;;;;;;;3.26;98.88;100882.47;5056997;28;20404;-74
2023/03/12 03:11:51;;;;;;;3.47;2.63;;;;;;;3.25;98.96;100873.84;5057865;28;20036;-74
2023/03/12 03:14:17;;;;;;;4.25;2.60;;;;;;;3.26;98.89;100877.31;5056915;28;20098;-74
2023/03/12 03:16:42;;;;;;;5.03;2.63;;;;;;;3.25;98.82;100875.56;5057836;28;20401;-74
2023/03/12 03:19:09;;;;;;;3.13;2.92;;;;;;;3.26;98.66;100861.78;5057303;28;20060;-74
2023/03/12 03:21:34;;;;;;;2.95;2.58;;;;;;;3.26;98.85;100860.03;5057290;28;20070;-74
2023/03/12 03:23:59;;;;;;;3.10;2.90;;;;;;;3.25;98.85;100845.38;5057866;28;20236;-74
2023/03/12 03:26:25;;;;;;;4.03;3.17;;;;;;;3.23;98.49;100856.63;5056767;28;20064;-74
2023/03/12 03:28:51;;;;;;;3.00;2.80;;;;;;;3.23;98.29;100852.28;5057116;28;20044;-74
2023/03/12 03:31:17;;;;;;;3.83;2.72;;;;;;;3.23;98.45;100844.53;5056620;28;20049;-74
2023/03/12 03:33:42;;;;;;;3.67;2.90;;;;;;;3.24;98.60;100848.84;5057078;28;20028;-74
2023/03/12 03:36:09;;;;;;;4.97;3.35;;;;;;;3.25;98.64;100849.69;5057406;28;20059;-74
2023/03/12 03:38:34;;;;;;;3.95;2.80;;;;;;;3.25;98.79;100842.78;5056487;28;20255;-74
2023/03/12 03:41:00;;;;;;;2.60;2.40;;;;;;;3.26;98.80;100831.56;5057457;28;20044;-74
2023/03/12 03:43:26;;;;;;;4.15;2.72;;;;;;;3.27;98.89;100837.59;5069858;28;20025;-74
2023/03/12 03:46:00;;;;;;;2.92;2.72;;;;;;;3.25;99.00;100832.41;5057210;28;20047;-74
2023/03/12 03:48:26;;;;;;;2.95;2.58;;;;;;;3.28;98.99;100825.53;5056613;28;20070;-74
2023/03/12 03:50:51;;;;;;;3.60;2.65;;;;;;;3.29;99.04;100825.47;5057187;28;20095;-74
2023/03/12 03:53:18;;;;;;;4.35;3.20;;;;;;;3.29;99.21;100817.72;5056388;28;20138;-74
2023/03/12 03:55:43;;;;;;;2.70;2.50;;;;;;;3.30;99.16;100816.00;5058019;28;20040;-73
2023/03/12 03:58:09;;;;;;;2.88;2.50;;;;;;;3.31;99.24;100817.69;5056686;28;20344;-73
2023/03/12 04:00:34;;;;;;;2.65;2.45;;;;;;;3.32;99.27;100815.09;5057512;28;20060;-71
2023/03/12 04:03:00;;;;;;;3.33;2.90;;;;;;;3.30;99.25;100808.25;5058541;28;20114;-71
2023/03/12 04:05:25;;;;;;;2.83;2.63;;;;;;;3.32;99.42;100822.03;5057655;28;20102;-71
2023/03/12 04:07:52;;;;;;;3.00;2.80;;;;;;;3.32;99.45;100814.25;5058311;28;20048;-71
2023/03/12 04:10:20;;;;;;;3.35;2.75;;;;;;;3.32;99.53;100811.66;5039019;28;20053;-71
2023/03/12 04:12:45;;;;;;;3.13;2.85;;;;;;;3.32;99.40;100811.66;5058333;28;20114;-71
2023/03/12 04:15:11;;;;;;;2.83;2.60;;;;;;;3.33;99.42;100823.72;5057951;28;20044;-71
2023/03/12 04:17:36;;;;;;;3.17;2.90;;;;;;;3.34;99.65;100822.84;5060356;28;20037;-71
2023/03/12 04:20:04;;;;;;;3.10;2.90;;;;;;;3.33;99.61;100818.53;5044463;28;20045;-71
2023/03/12 04:22:29;;;;;;;6.95;3.78;;;;;;;3.32;99.21;100803.91;5044516;28;20266;-71
2023/03/12 04:24:54;;;;;;;3.35;2.92;;;;;;;3.31;99.25;100805.63;5062495;28;20166;-71
2023/03/12 04:27:20;;;;;;;4.03;3.42;;;;;;;3.32;99.37;100796.13;5061472;28;20116;-71
2023/03/12 04:29:45;;;;;;;4.13;3.72;;;;;;;3.31;99.35;100787.53;5061752;28;20047;-71
2023/03/12 04:32:11;;;;;;;4.47;3.70;;;;;;;3.31;99.30;100776.28;5044219;28;20071;-71
2023/03/12 04:34:36;;;;;;;4.05;3.60;;;;;;;3.31;99.32;100765.94;5061072;28;20049;-71
2023/03/12 04:37:02;;;;;;;3.25;3.00;;;;;;;3.30;99.43;100759.91;5061905;28;20049;-71
2023/03/12 04:39:27;;;;;;;3.63;3.30;;;;;;;3.30;99.64;100738.34;5061057;28;20047;-71
2023/03/12 04:41:53;;;;;;;4.10;3.72;;;;;;;3.31;99.58;100729.69;5043588;28;20370;-71
2023/03/12 04:44:18;;;;;;;3.25;3.05;;;;;;;3.31;99.68;100740.94;5061572;28;20296;-71
2023/03/12 04:46:43;;;;;;;3.85;3.55;;;;;;;3.32;99.77;100737.44;5062105;28;20048;-71
2023/03/12 04:49:09;;;;;;;4.20;3.10;;;;;;;3.32;99.81;100742.63;5062062;28;20040;-71
2023/03/12 04:51:34;;;;;;;4.28;3.88;;;;;;;3.32;99.82;100745.22;5061272;28;20287;-71
2023/03/12 04:54:00;;;;;;;3.88;3.35;;;;;;;3.32;99.86;100752.13;5062002;28;20041;-71
2023/03/12 04:56:25;;;;;;;3.92;3.40;;;;;;;3.32;100.00;100746.94;5061420;28;20040;-71
2023/03/12 04:58:51;;;;;;;4.55;3.67;;;;;;;3.33;100.00;100741.75;5061917;28;20102;-71
2023/03/12 05:01:27;;;;;;;4.28;3.97;;;;;;;3.33;100.00;100735.69;5061460;28;20037;-71
2023/03/12 05:03:53;;;;;;;4.07;3.67;;;;;;;3.33;100.00;100748.66;5061698;28;20101;-71
2023/03/12 05:06:20;;;;;;;6.18;4.25;;;;;;;3.32;100.00;100750.38;5061426;28;20044;-71
2023/03/12 05:08:46;;;;;;;4.25;3.72;;;;;;;3.33;100.00;100752.13;5061484;28;20075;-71
2023/03/12 05:11:12;;;;;;;3.85;3.55;;;;;;;3.33;100.00;100746.94;5044250;28;20048;-71
2023/03/12 05:13:37;;;;;;;4.60;3.78;;;;;;;3.33;100.00;100741.75;5060910;28;20043;-71
2023/03/12 05:16:03;;;;;;;4.65;4.25;;;;;;;3.34;100.00;100742.59;5043273;28;20017;-71
2023/03/12 05:18:29;;;;;;;4.30;3.90;;;;;;;3.33;100.00;100741.75;5060782;28;20044;-71
2023/03/12 05:21:01;;;;;;;4.18;3.78;;;;;;;3.35;100.00;100741.75;5061227;28;20125;-71
2023/03/12 05:23:27;;;;;;;4.38;3.75;;;;;;;3.35;100.00;100746.91;5061374;28;20074;-71
2023/03/12 05:25:53;;;;;;;5.25;4.15;;;;;;;3.35;100.00;100739.16;5061306;28;20048;-71
2023/03/12 05:28:19;;;;;;;5.40;4.90;;;;;;;3.36;100.00;100746.03;5042058;28;20100;-71
2023/03/12 05:30:45;;;;;;;5.38;4.72;;;;;;;3.35;100.00;100752.09;5061341;28;20594;-71
2023/03/12 05:33:11;;;;;;;5.50;4.38;;;;;;;3.35;100.00;100755.53;5061710;28;20228;-71
2023/03/12 05:35:36;;;;;;;5.05;4.55;;;;;;;3.35;100.00;100752.09;5060263;28;20046;-71
2023/03/12 05:38:02;;;;;;;4.15;3.75;;;;;;;3.35;100.00;100746.91;5060837;28;20045;-71
2023/03/12 05:40:27;;;;;;;4.32;3.92;;;;;;;3.35;100.00;100749.50;5060712;28;20032;-71
2023/03/12 05:42:53;;;;;;;4.80;4.30;;;;;;;3.35;100.00;100750.38;5061131;28;20041;-71
2023/03/12 05:45:18;;;;;;;5.18;4.43;;;;;;;3.36;100.00;100746.03;5060258;28;20037;-71
2023/03/12 05:47:44;;;;;;;5.22;4.35;;;;;;;3.37;100.00;100732.22;5060802;28;20040;-71
2023/03/12 05:50:10;;;;;;;4.78;4.38;;;;;;;3.37;100.00;100730.47;5060585;28;20049;-71
2023/03/12 05:52:35;;;;;;;5.40;4.72;;;;;;;3.37;100.00;100722.72;5060788;28;20068;-71
2023/03/12 05:55:01;;;;;;;5.05;4.65;;;;;;;3.38;100.00;100715.81;5043352;28;20109;-71
2023/03/12 05:57:26;;;;;;;5.97;4.57;;;;;;;3.38;100.00;100716.66;5042299;28;20044;-71
2023/03/12 05:59:51;;;;;;;5.30;4.90;;;;;;;3.37;100.00;100722.72;5060997;28;20572;-71
2023/03/12 06:02:17;;;;;;;6.32;5.18;;;;;;;3.39;100.00;100722.69;5060153;28;20051;-71
2023/03/12 06:04:42;;;;;;;5.43;4.93;;;;;;;3.39;100.00;100717.53;5060764;28;20089;-71
2023/03/12 06:07:07;;;;;;;5.18;4.68;;;;;;;3.38;100.00;100720.97;5060497;28;20239;-71
2023/03/12 06:09:34;;;;;;;5.88;5.05;;;;;;;3.37;100.00;100714.94;5059871;28;20119;-71
2023/03/12 06:11:59;;;;;;;7.03;5.32;;;;;;;3.38;100.00;100715.81;5060205;28;20037;-71
2023/03/12 06:14:25;;;;;;;5.50;5.00;;;;;;;3.39;100.00;100717.53;5060288;28;20047;-71
2023/03/12 06:16:50;;;;;;;7.40;5.50;;;;;;;3.40;100.00;100709.75;5060330;28;20044;-71
2023/03/12 06:19:16;;;;;;;5.47;4.97;;;;;;;3.41;100.00;100719.19;5059499;28;20029;-71
2023/03/12 06:21:42;;;;;;;5.13;4.63;;;;;;;3.40;100.00;100709.75;5060410;28;20040;-71
2023/03/12 06:24:08;;;;;;;5.68;5.15;;;;;;;3.40;100.00;100704.56;5060896;28;20144;-71
2023/03/12 06:26:33;;;;;;;5.80;5.25;;;;;;;3.40;100.00;100695.91;5059729;28;20040;-71
2023/03/12 06:28:58;;;;;;;5.30;4.90;;;;;;;3.42;100.00;100686.41;5059971;28;20037;-71
2023/03/12 06:31:24;;;;;;;5.45;4.63;;;;;;;3.42;100.00;100683.81;5059596;28;20028;-71
2023/03/12 06:33:50;;;;;;;5.85;5.38;;;;;;;3.41;100.00;100671.75;5060217;28;20036;-71
2023/03/12 06:36:16;;;;;;;5.80;5.30;;;;;;;3.43;100.00;100667.41;5041488;28;20075;-71
2023/03/12 06:38:42;;;;;;;5.70;5.20;;;;;;;3.43;100.00;100675.19;5059446;28;20078;-71
2023/03/12 06:41:13;;;;;;;5.53;5.10;;;;;;;3.43;100.00;100682.94;5059669;28;20028;-71
2023/03/12 06:43:40;;;;;;;6.80;5.50;;;;;;;3.45;100.00;100676.00;5059482;28;20033;-71
2023/03/12 06:46:08;;;;;;;5.40;4.90;;;;;;;3.45;100.00;100681.19;5060224;28;20328;-71
2023/03/12 06:48:40;;;;;;;5.50;5.10;;;;;;;3.45;100.00;100686.38;5059137;28;20048;-71
2023/03/12 06:51:11;;;;;;;5.78;5.38;;;;;;;3.45;100.00;100676.84;5041946;28;20036;-71
2023/03/12 06:53:37;;;;;;;6.28;5.65;;;;;;;3.46;100.00;100673.41;5058378;28;20055;-71
2023/03/12 06:56:03;;;;;;;5.88;5.47;;;;;;;3.48;100.00;100675.13;5060664;28;20354;-71
2023/03/12 06:58:28;;;;;;;6.18;5.28;;;;;;;3.49;100.00;100671.63;5059068;28;20073;-71
2023/03/12 07:00:54;;;;;;;6.22;5.50;;;;;;;3.48;100.00;100683.75;5060788;28;20093;-71
2023/03/12 07:03:20;;;;;;;6.50;5.82;;;;;;;3.50;100.00;100678.53;5059408;28;20041;-71
2023/03/12 07:05:47;;;;;;;5.90;5.30;;;;;;;3.51;100.00;100680.25;5060348;28;20064;-71
2023/03/12 07:08:13;;;;;;;6.40;5.80;;;;;;;3.51;100.00;100685.41;5060051;28;20048;-71
2023/03/12 07:10:38;;;;;;;6.68;5.78;;;;;;;3.51;100.00;100683.72;5059698;28;20391;-71
2023/03/12 07:13:04;;;;;;;8.35;7.22;;;;;;;3.51;100.00;100693.19;5040225;28;20033;-71
2023/03/12 07:15:29;;;;;;;9.43;7.97;;;;;;;3.51;100.00;100682.81;5057783;28;20087;-71
2023/03/12 07:17:59;;;;;;;10.88;8.07;;;;;;;3.50;100.00;100689.75;5058294;28;20039;-71
2023/03/12 07:20:24;;;;;;;8.50;7.70;;;;;;;3.50;100.00;100702.69;5059535;28;20024;-71
2023/03/12 07:22:50;;;;;;;8.60;7.68;;;;;;;3.50;100.00;100689.75;5057282;28;20225;-71
2023/03/12 07:25:15;;;;;;;8.73;7.25;;;;;;;3.53;100.00;100689.72;5059602;28;20036;-71
2023/03/12 07:27:40;;;;;;;8.50;7.63;;;;;;;3.53;100.00;100681.06;5059813;28;20411;-71
2023/03/12 07:30:07;;;;;;;8.30;7.50;;;;;;;3.55;100.00;100675.00;5059473;28;20114;-71
2023/03/12 07:32:32;;;;;;;9.82;7.20;;;;;;;3.56;100.00;100688.81;5059124;28;20045;-71
2023/03/12 07:34:57;;;;;;;9.90;7.90;;;;;;;3.58;100.00;100681.88;5059677;28;20458;-71
2023/03/12 07:37:23;;;;;;;12.48;10.05;;;;;;;3.58;100.00;100687.91;5059205;28;20090;-71
2023/03/12 07:39:51;;;;;;;9.90;8.85;;;;;;;3.60;100.00;100695.66;5060178;28;20033;-71
2023/03/12 07:42:16;;;;;;;11.35;9.60;;;;;;;3.61;100.00;100699.97;5059071;28;20110;-71
2023/03/12 07:44:42;;;;;;;11.10;9.32;;;;;;;3.62;100.00;100699.94;5059719;28;20380;-71
2023/03/12 07:47:07;;;;;;;11.63;10.18;;;;;;;3.63;100.00;100701.63;5058912;28;20045;-71
2023/03/12 07:49:32;;;;;;;12.63;10.43;;;;;;;3.64;100.00;100702.50;5056387;28;20056;-71
2023/03/12 07:51:58;;;;;;;16.15;12.25;;;;;;;3.64;100.00;100703.38;5058387;28;20049;-71
2023/03/12 07:54:29;;;;;;;14.35;11.77;;;;;;;3.67;100.00;100706.78;5059005;28;20037;-71
2023/03/12 07:56:54;;;;;;;11.65;10.43;;;;;;;3.67;100.00;100709.38;5059319;28;20351;-71
2023/03/12 07:59:21;;;;;;;16.08;12.48;;;;;;;3.69;100.00;100716.22;5058820;28;20131;-71
2023/03/12 08:01:46;;;;;;;15.10;11.23;;;;;;;3.70;100.00;100707.59;5059253;28;20036;-71
2023/03/12 08:04:11;;;;;;;15.07;11.20;;;;;;;3.71;100.00;100714.50;5059476;28;20398;-71
2023/03/12 08:06:41;;;;;;;14.85;10.98;;;;;;;3.73;100.00;100715.34;5056698;28;20040;-71
2023/03/12 08:09:07;;;;;;;17.83;12.77;;;;;;;3.75;100.00;100716.16;5058501;28;20228;-71
2023/03/12 08:11:33;;;;;;;18.95;13.15;;;;;;;3.77;100.00;100716.16;5058472;28;20041;-71
2023/03/12 08:13:58;;;;;;;27.38;15.98;;;;;;;3.79;100.00;100722.16;5059241;28;20033;-71
2023/03/12 08:16:24;;;;;;;33.05;19.75;;;;;;;3.82;100.00;100719.50;5059219;28;20072;-71
2023/03/12 08:18:49;;;;;;;38.20;19.98;;;;;;;3.85;100.00;100719.47;5046620;28;20352;-71
2023/03/12 08:21:15;;;;;;;43.55;22.38;;;;;;;3.87;100.00;100715.09;5056040;28;20060;-71
2023/03/12 08:23:41;;;;;;;34.90;19.42;;;;;;;3.88;100.00;100721.16;5058278;28;20144;-71
2023/03/12 08:26:06;;;;;;;33.83;19.50;;;;;;;3.91;100.00;100718.50;5059111;28;20541;-71
2023/03/12 08:28:32;;;;;;;30.38;19.20;;;;;;;3.94;100.00;100724.50;5046380;28;20044;-71
2023/03/12 08:30:59;;;;;;;39.90;22.10;;;;;;;3.99;100.00;100727.88;5058434;28;20036;-71
2023/03/12 08:33:24;;;;;;;36.20;20.65;;;;;;;4.03;100.00;100732.13;5057762;28;20048;-71
2023/03/12 08:35:50;;;;;;;45.60;23.10;;;;;;;4.06;100.00;100731.25;5057882;28;20182;-71
2023/03/12 08:38:16;;;;;;;56.95;25.10;;;;;;;4.10;100.00;100738.09;5054553;28;20036;-71
2023/03/12 08:40:42;;;;;;;45.13;23.83;;;;;;;4.13;100.00;100738.06;5058449;28;20044;-71
2023/03/12 08:43:07;;;;;;;52.33;26.10;;;;;;;4.17;100.00;100742.31;5058291;28;20041;-71
2023/03/12 08:45:35;;;;;;;48.28;24.00;;;;;;;4.20;100.00;100743.97;5057812;28;20041;-71
2023/03/12 08:48:05;;;;;;;43.92;23.33;;;;;;;4.27;100.00;100740.41;5046300;28;20045;-71
2023/03/12 08:50:31;;;;;;;45.90;24.27;;;;;;;4.32;100.00;100735.16;5047358;28;20039;-71
2023/03/12 08:52:57;;;;;;;38.50;22.02;;;;;;;4.35;100.00;100728.19;5049705;28;20104;-71
2023/03/12 08:55:22;;;;;;;52.10;21.77;;;;;;;4.41;100.00;100730.66;5051382;28;20304;-71
2023/03/12 08:57:48;;;;;;;45.38;23.13;;;;;;;4.46;100.00;100729.72;5044825;28;20036;-71
2023/03/12 09:00:15;;;;;;;42.88;20.90;;;;;;;4.51;100.00;100728.78;5048975;28;20040;-71
2023/03/12 09:02:45;;;;;;;41.50;21.60;;;;;;;4.58;100.00;100729.53;5047489;28;20041;-71
2023/03/12 09:05:11;;;;;;;44.35;19.67;;;;;;;4.61;100.00;100732.06;5059543;28;20209;-71
2023/03/12 09:07:37;;;;;;;40.13;19.92;;;;;;;4.67;100.00;100733.69;5058130;28;20296;-71
2023/03/12 09:10:04;;;;;;;37.67;18.52;;;;;;;4.78;100.00;100732.63;5050405;28;20328;-71
2023/03/12 09:12:29;;;;;;;47.33;19.02;;;;;;;4.91;100.00;100741.03;5043918;28;20048;-71
2023/03/12 09:14:54;;;;;;;42.75;17.10;;;;;;;5.08;100.00;100745.06;5054545;28;20071;-71
2023/03/12 09:17:20;;;;;;;40.30;15.05;;;;;;;5.18;100.00;100749.16;5059278;28;20104;-71
2023/03/12 09:19:45;;;;;;;43.58;13.93;;;;;;;5.38;100.00;100753.94;5058871;28;20040;-71
2023/03/12 09:22:11;;;;;;;40.38;13.65;;;;;;;5.49;100.00;100753.72;5060185;28;20347;-71
2023/03/12 09:24:36;;;;;;;40.65;11.68;;;;;;;5.56;100.00;100743.16;5059176;28;20063;-71
2023/03/12 09:27:03;;;;;;;39.70;10.27;;;;;;;5.66;100.00;100743.00;5059984;28;20043;-71
2023/03/12 09:29:29;;;;;;;43.78;10.30;;;;;;;5.78;100.00;100747.91;5058884;28;20041;-71
2023/03/12 09:31:54;;;;;;;44.25;8.52;;;;;;;5.91;100.00;100754.56;5059922;28;20094;-71
2023/03/12 09:34:20;;;;;;;38.63;9.13;;;;;;;5.96;100.00;100750.13;5059028;28;20229;-71
2023/03/12 09:36:45;;;;;;;48.30;8.30;;;;;;;6.08;100.00;100755.94;5059368;28;20032;-71
2023/03/12 09:39:10;;;;;;;50.35;9.27;;;;;;;6.14;100.00;100753.19;5059932;28;20428;-71
2023/03/12 09:41:39;;;;;;;31.17;8.40;;;;;;;6.25;100.00;100758.13;5059582;28;20062;-71
2023/03/12 09:44:29;;;;;;;50.15;9.38;;;;;;;6.33;100.00;100758.78;5048031;28;20418;-71
2023/03/12 09:46:58;;;;;;;37.45;7.47;;;;;;;6.34;100.00;100761.34;5050295;28;20036;-71
2023/03/12 09:49:36;;;;;;;51.42;8.30;;;;;;;6.39;100.00;100776.03;5048070;28;20048;-71
2023/03/12 09:52:14;;;;;;;45.67;9.18;;;;;;;6.43;100.00;100770.69;5048465;28;20101;-71
2023/03/12 09:54:51;;;;;;;50.28;7.50;;;;;;;6.45;100.00;100766.28;5043483;28;20293;-71
2023/03/12 09:57:23;;;;;;;34.22;7.40;;;;;;;6.48;100.00;100768.84;5044089;28;20044;-71
2023/03/12 09:59:49;;;;;;;30.67;6.70;;;;;;;6.49;100.00;100759.28;5059822;28;20049;-71
2023/03/12 10:02:56;;;;;;;46.80;8.65;;;;;;;6.54;100.00;100771.28;5062837;28;20032;-71
2023/03/12 10:05:35;;;;;;;50.85;6.72;;;;;;;6.60;100.00;100765.06;5064570;28;20347;-71
2023/03/12 10:08:19;;;;;;;45.90;6.65;;;;;;;6.64;100.00;100761.50;5065166;28;20209;-71
2023/03/12 10:10:53;;;;;;;40.28;6.88;;;;;;;6.70;100.00;100770.91;5043824;28;20037;-71
2023/03/12 10:13:32;;;;;;;57.33;8.20;;;;;;;6.73;100.00;100773.41;5048724;28;20100;-71
2023/03/12 10:16:20;;;;;;;59.92;9.43;;;;;;;6.78;100.00;100781.09;5058678;28;20045;-71
2023/03/12 10:18:46;;;;;;;43.42;6.55;;;;;;;6.81;100.00;100775.81;5058627;28;20060;-71
2023/03/12 10:21:29;;;;;;;48.35;6.35;;;;;;;6.84;100.00;100775.72;5059164;28;20347;-71
2023/03/12 10:24:06;;;;;;;39.97;4.90;;;;;;;6.87;100.00;100770.44;5058114;28;20036;-71
2023/03/12 10:26:41;;;;;;;45.28;6.55;;;;;;;6.90;100.00;100765.16;5058232;28;20041;-71
2023/03/12 10:29:15;;;;;;;48.58;6.13;;;;;;;6.91;100.00;100766.88;5056927;28;20086;-71
2023/03/12 10:31:56;;;;;;;32.85;5.13;;;;;;;6.94;100.00;100766.78;5057231;28;20034;-71
2023/03/12 10:34:28;;;;;;;48.25;5.25;;;;;;;6.98;100.00;100763.19;5044548;28;20045;-71
2023/03/12 10:36:59;;;;;;;34.50;5.13;;;;;;;7.02;100.00;100769.19;5057108;28;20107;-71
2023/03/12 10:39:24;;;;;;;44.55;6.10;;;;;;;7.03;100.00;100768.28;5055034;28;20028;-71
2023/03/12 10:41:51;;;;;;;27.58;5.03;;;;;;;7.04;100.00;100765.66;5054723;28;20048;-71
2023/03/12 10:44:21;;;;;;;36.50;6.05;;;;;;;7.09;100.00;100769.00;5056729;28;20025;-71
2023/03/12 10:46:49;;;;;;;31.45;4.60;;;;;;;7.11;100.00;100761.13;5058052;28;20045;-71
2023/03/12 10:49:20;;;;;;;34.58;6.07;;;;;;;7.13;100.00;100776.69;5057041;28;20059;-71
2023/03/12 10:52:01;;;;;;;44.35;5.30;;;;;;;7.17;100.00;100784.41;5055723;28;20090;-71
2023/03/12 10:54:30;;;;;;;32.10;5.82;;;;;;;7.21;100.00;100785.19;5055651;28;20086;-71
2023/03/12 10:56:55;;;;;;;40.03;5.55;;;;;;;7.23;100.00;100788.59;5054923;28;20166;-71
2023/03/12 10:59:24;;;;;;;38.47;5.18;;;;;;;7.27;100.00;100796.25;5053059;28;20053;-71
2023/03/12 11:01:51;;;;;;;33.63;6.05;;;;;;;7.31;100.00;100807.44;5054353;28;20029;-71
2023/03/12 11:04:26;;;;;;;34.80;5.13;;;;;;;7.34;100.00;100811.75;5053331;28;20033;-71
2023/03/12 11:07:06;;;;;;;30.42;4.88;;;;;;;7.35;100.00;100806.50;5050149;28;20281;-71
2023/03/12 11:09:32;;;;;;;34.22;4.43;;;;;;;7.37;100.00;100801.22;5054301;28;20041;-71
2023/03/12 11:11:58;;;;;;;32.13;5.15;;;;;;;7.38;100.00;100802.94;5055598;28;20281;-71
2023/03/12 11:14:26;;;;;;;36.78;4.55;;;;;;;7.40;100.00;100808.94;5056829;28;20060;-71
2023/03/12 11:16:53;;;;;;;44.92;5.05;;;;;;;7.41;100.00;100803.69;5057176;28;20037;-71
2023/03/12 11:19:45;;;;;;;53.88;7.15;;;;;;;7.48;100.00;100801.78;5056961;28;20357;-71
2023/03/12 11:22:10;;;;;;;41.35;5.55;;;;;;;7.52;100.00;100802.56;5050146;28;20175;-71
2023/03/12 11:24:54;;;;;;;32.33;4.35;;;;;;;7.58;100.00;100807.59;5057226;28;20360;-71
2023/03/12 11:27:39;;;;;;;35.47;5.60;;;;;;;7.59;100.00;100801.47;5054310;28;20040;-71
2023/03/12 11:30:10;;;;;;;34.97;5.13;;;;;;;7.64;100.00;100804.78;5057456;28;20032;-71